General Aviation Weather

Text Reports

Enter one or more of the following location identifiers separated by a space:

Zip Code, Four-Character ICAO or Three-Character IATA airport codes.

METAR - Aviation Routine Weather Report
KFME - Fort Meade, Maryland
Updated at 11:18 AM GMT on December 29, 2014 (6:18 AM EST):
METAR KFME 291118Z AUTO 01005KT 10SM SCT044 OVC060 05/M01 A3021 RMK AO1
TAF - Terminal Area Forecast
KFME - Fort Meade, Maryland
Updated at 11:18 AM GMT on December 29, 2014 (6:18 AM EST):
No TAF is currently available for this location.
Decoded:
No decoded TAF is available.
PIREP - Pilot Weather Report
KFME - Fort Meade, Maryland
Updated at 11:18 AM GMT on December 29, 2014 (6:18 AM EST):
No PIREP is currently available for this location.
AIRMET - Airmens Meteorological Information
KFME - Fort Meade, Maryland
Updated at 11:18 AM GMT on December 29, 2014 (6:18 AM EST):
No AIRMET is currently available for this location.
SIGMET - Significant Meteorological Information
KFME - Fort Meade, Maryland
Updated at 11:18 AM GMT on December 29, 2014 (6:18 AM EST):
No SIGMET is currently available for this location.
NOTAM - Notice to Airmen
KFME - Fort Meade, Maryland
Updated at 11:18 AM GMT on December 29, 2014 (6:18 AM EST):
No NOTAM is currently available for this location.
Forecast Area
KFME - Fort Meade, Maryland
Updated at 11:18 AM GMT on December 29, 2014 (6:18 AM EST):
No NOTAM is currently available for this location.
Aviation Weather Maps